Biggs Park, North Carolina
Current Conditions -  °F | °C
As of 2:54 PM on Thursday 18 Dec 2014 (Local Time) from KLBT Reporting Station
Clear Clear  
Wind Chill: 55°   Ceiling: Unl
Heat Index: 55°   Visibility: 10mi
Dew Point: 27°   Wind: 3mph
Humidity: 34%   Direction: 110°ESE
Pressure: 30.07"   Gusts: NA
Location:  34.6279°N, 79.0055°W
Report Text: KLBT 181954Z AUTO 11003KT 10SM CLR 13/M03 A3007 RMK AO2 SLP184 T01281028
Loading
Personal Weather Stations






























Interactive Weather Map New forecast layout! Learn more

10-Day Weather Forecast

Advertisements
Track Severe Weather on mobile